Time;durP1;ratioP1;P1;durP2;ratioP2;P2;SDS_P1;SDS_P2;PMS_P1;PMS_P2;Temp;Humidity;BMP_temperature;BMP_pressure;BME280_temperature;BME280_humidity;BME280_pressure;Samples;Min_cycle;Max_cycle;Signal;HPM_P1;HPM_P2
2022/12/12 00:01:42;;;;;;;10.90;8.07;;;3.10;97.50;;;;;;5066146;28;20585;-63
2022/12/12 00:04:09;;;;;;;12.63;8.40;;;3.00;97.40;;;;;;5066330;28;20207;-63
2022/12/12 00:06:36;;;;;;;11.27;7.83;;;3.00;97.40;;;;;;5064555;28;20654;-63
2022/12/12 00:09:04;;;;;;;15.90;6.37;;;3.00;97.40;;;;;;5064306;28;20521;-63
2022/12/12 00:11:31;;;;;;;10.33;7.30;;;2.90;97.50;;;;;;5048593;28;20200;-63
2022/12/12 00:13:58;;;;;;;12.90;7.20;;;2.90;97.50;;;;;;5064554;28;20203;-63
2022/12/12 00:16:27;;;;;;;8.63;6.87;;;2.90;97.50;;;;;;5066083;28;20231;-63
2022/12/12 00:18:54;;;;;;;13.87;8.83;;;2.80;97.30;;;;;;5054997;28;20207;-63
2022/12/12 00:21:24;;;;;;;12.40;10.07;;;2.80;97.20;;;;;;5062619;28;20196;-63
2022/12/12 00:23:51;;;;;;;12.07;9.20;;;2.80;97.10;;;;;;5060248;28;20210;-63
2022/12/12 00:26:23;;;;;;;15.80;11.07;;;2.70;97.10;;;;;;5070017;28;20508;-63
2022/12/12 00:28:51;;;;;;;14.93;10.33;;;2.70;97.10;;;;;;5066186;28;20647;-63
2022/12/12 00:31:18;;;;;;;12.73;9.27;;;2.70;97.20;;;;;;5065937;28;20541;-63
2022/12/12 00:33:48;;;;;;;12.60;9.67;;;2.70;97.30;;;;;;5066980;28;20207;-63
2022/12/12 00:36:22;;;;;;;14.73;10.43;;;2.70;97.40;;;;;;5064088;28;20589;-63
2022/12/12 00:38:51;;;;;;;55.13;9.37;;;2.70;97.50;;;;;;5058982;28;20226;-63
2022/12/12 00:41:19;;;;;;;16.00;7.20;;;2.70;97.50;;;;;;5064528;28;20651;-63
2022/12/12 00:43:46;;;;;;;16.67;6.97;;;2.70;97.50;;;;;;5061988;28;20199;-63
2022/12/12 00:46:16;;;;;;;13.00;6.93;;;2.60;97.40;;;;;;5049056;28;20210;-63
2022/12/12 00:48:44;;;;;;;8.97;7.10;;;2.70;97.40;;;;;;5066824;28;20213;-63
2022/12/12 00:51:16;;;;;;;10.40;6.60;;;2.60;97.40;;;;;;5058269;28;20277;-63
2022/12/12 00:53:44;;;;;;;8.33;6.17;;;2.60;97.50;;;;;;5067147;28;20567;-63
2022/12/12 00:56:13;;;;;;;9.77;6.73;;;2.60;97.50;;;;;;5066849;28;20239;-63
2022/12/12 00:58:41;;;;;;;7.80;6.73;;;2.60;97.50;;;;;;5061993;28;20201;-63
2022/12/12 01:01:14;;;;;;;10.27;7.67;;;2.60;97.50;;;;;;5060087;28;20234;-63
2022/12/12 01:03:42;;;;;;;8.67;6.53;;;2.60;97.50;;;;;;5065467;28;20703;-63
2022/12/12 01:06:09;;;;;;;11.33;7.37;;;2.60;97.50;;;;;;5066485;28;20200;-63
2022/12/12 01:08:38;;;;;;;8.80;6.90;;;2.50;97.50;;;;;;5063060;28;20196;-63
2022/12/12 01:11:08;;;;;;;10.90;7.20;;;2.50;97.50;;;;;;5062044;28;20236;-63
2022/12/12 01:13:35;;;;;;;12.90;7.57;;;2.50;97.40;;;;;;5066705;28;20551;-63
2022/12/12 01:16:04;;;;;;;9.93;7.40;;;2.50;97.50;;;;;;5070442;28;20656;-63
2022/12/12 01:18:32;;;;;;;17.40;8.00;;;2.50;97.50;;;;;;5063247;28;20215;-63
2022/12/12 01:20:59;;;;;;;24.90;8.70;;;2.50;97.60;;;;;;5063453;28;20198;-62
2022/12/12 01:23:27;;;;;;;15.33;9.37;;;2.50;97.70;;;;;;5063379;28;20199;-63
2022/12/12 01:26:02;;;;;;;10.00;8.07;;;2.50;97.70;;;;;;5065403;28;20218;-63
2022/12/12 01:28:29;;;;;;;12.90;8.03;;;2.50;97.80;;;;;;5060352;28;20200;-63
2022/12/12 01:30:56;;;;;;;35.40;9.63;;;2.60;97.80;;;;;;5060791;28;20210;-63
2022/12/12 01:33:23;;;;;;;16.90;9.20;;;2.50;97.60;;;;;;5062801;28;20195;-63
2022/12/12 01:35:50;;;;;;;11.43;8.60;;;2.50;97.40;;;;;;5065928;28;20221;-63
2022/12/12 01:38:18;;;;;;;25.43;9.90;;;2.50;97.50;;;;;;5066599;28;20313;-63
2022/12/12 01:40:45;;;;;;;11.43;8.47;;;2.60;97.50;;;;;;5061827;28;20196;-63
2022/12/12 01:43:17;;;;;;;11.13;7.97;;;2.60;97.60;;;;;;5065377;28;20548;-63
2022/12/12 01:46:00;;;;;;;12.67;8.63;;;2.60;97.60;;;;;;5065064;28;20207;-63
2022/12/12 01:48:44;;;;;;;19.17;10.10;;;2.60;97.70;;;;;;5061556;28;20273;-63
2022/12/12 01:51:20;;;;;;;15.83;9.30;;;2.60;97.60;;;;;;5061309;28;20202;-63
2022/12/12 01:53:51;;;;;;;11.20;8.70;;;2.60;97.60;;;;;;5041994;28;20214;-63
2022/12/12 01:56:20;;;;;;;17.20;10.37;;;2.60;97.50;;;;;;5065245;28;20215;-63
2022/12/12 01:58:49;;;;;;;11.30;9.13;;;2.60;97.40;;;;;;5062287;28;20212;-63
2022/12/12 02:01:19;;;;;;;13.83;9.60;;;2.60;97.40;;;;;;5060482;28;20716;-63
2022/12/12 02:03:48;;;;;;;13.53;10.33;;;2.60;97.50;;;;;;5068374;28;20203;-63
2022/12/12 02:06:23;;;;;;;13.80;8.73;;;2.60;97.60;;;;;;5062829;28;20207;-63
2022/12/12 02:08:53;;;;;;;11.57;8.97;;;2.60;97.60;;;;;;5029830;28;20319;-63
2022/12/12 02:11:20;;;;;;;13.40;9.13;;;2.60;97.70;;;;;;5057782;28;20236;-63
2022/12/12 02:13:49;;;;;;;11.47;8.67;;;2.60;97.70;;;;;;5063870;28;20226;-63
2022/12/12 02:16:25;;;;;;;12.23;9.73;;;2.60;97.70;;;;;;5044744;28;20311;-63
2022/12/12 02:19:08;;;;;;;11.77;8.87;;;2.60;97.70;;;;;;5037148;28;20619;-63
2022/12/12 02:21:54;;;;;;;15.57;10.27;;;2.60;97.70;;;;;;5053137;28;20211;-63
2022/12/12 02:24:50;;;;;;;12.77;9.03;;;2.60;97.70;;;;;;5061245;28;20201;-63
2022/12/12 02:27:28;;;;;;;12.10;9.27;;;2.60;97.80;;;;;;5062536;28;20195;-63
2022/12/12 02:30:13;;;;;;;20.47;8.40;;;2.60;97.70;;;;;;5062764;28;20207;-63
2022/12/12 02:32:56;;;;;;;10.47;8.37;;;2.60;97.80;;;;;;5062686;28;20214;-63
2022/12/12 02:35:38;;;;;;;10.00;7.80;;;2.60;97.70;;;;;;5062384;28;20228;-63
2022/12/12 02:38:20;;;;;;;12.77;8.93;;;2.60;97.70;;;;;;5063036;28;20200;-63
2022/12/12 02:40:56;;;;;;;12.70;9.50;;;2.60;97.70;;;;;;5057110;28;20203;-63
2022/12/12 02:43:35;;;;;;;11.13;8.43;;;2.60;97.70;;;;;;5061330;28;20212;-62
2022/12/12 02:46:16;;;;;;;11.73;8.60;;;2.50;97.60;;;;;;5061370;28;20197;-62
2022/12/12 02:49:18;;;;;;;10.33;8.30;;;2.50;97.60;;;;;;5061365;28;20702;-62
2022/12/12 02:51:47;;;;;;;12.27;9.23;;;2.50;97.60;;;;;;5051012;28;20218;-62
2022/12/12 02:54:17;;;;;;;11.67;8.87;;;2.50;97.60;;;;;;5066017;28;20203;-62
2022/12/12 02:56:46;;;;;;;14.97;8.30;;;2.40;97.50;;;;;;5063100;28;20223;-62
2022/12/12 02:59:16;;;;;;;13.80;9.23;;;2.40;97.40;;;;;;5058495;28;20221;-62
2022/12/12 03:02:02;;;;;;;10.00;8.17;;;2.30;97.40;;;;;;5044175;28;20245;-62
2022/12/12 03:07:48;;;;;;;14.67;9.73;;;2.30;97.40;;;;;;5062847;28;20211;-62
2022/12/12 03:10:15;;;;;;;13.03;9.43;;;2.30;97.40;;;;;;5061865;28;20203;-62
2022/12/12 03:12:57;;;;;;;19.70;10.03;;;2.20;97.40;;;;;;5063317;28;20284;-62
2022/12/12 03:15:43;;;;;;;12.57;9.83;;;2.30;97.60;;;;;;5063066;28;20203;-62
2022/12/12 03:18:29;;;;;;;14.87;10.07;;;2.20;97.50;;;;;;5056440;28;20210;-62
2022/12/12 03:21:02;;;;;;;13.27;9.17;;;2.20;97.50;;;;;;5061302;28;20214;-62
2022/12/12 03:23:46;;;;;;;12.77;8.83;;;2.20;97.50;;;;;;5062488;28;20202;-62
2022/12/12 03:26:16;;;;;;;15.63;10.10;;;2.20;97.50;;;;;;5061653;28;20240;-62
2022/12/12 03:29:08;;;;;;;10.83;7.97;;;2.20;97.50;;;;;;5056543;28;20207;-62
2022/12/12 03:31:38;;;;;;;14.00;10.53;;;2.20;97.60;;;;;;5062524;28;20195;-63
2022/12/12 03:34:12;;;;;;;13.40;9.53;;;2.20;97.60;;;;;;5063680;28;20202;-62
2022/12/12 03:36:53;;;;;;;13.93;9.43;;;2.20;97.60;;;;;;5065432;28;20228;-62
2022/12/12 03:39:28;;;;;;;11.57;9.00;;;2.20;97.60;;;;;;5062038;28;20191;-62
2022/12/12 03:42:04;;;;;;;12.03;8.90;;;2.20;97.60;;;;;;5060438;28;20207;-62
2022/12/12 03:45:00;;;;;;;11.90;9.00;;;2.20;97.60;;;;;;5064076;28;20632;-62
2022/12/12 03:47:48;;;;;;;10.80;8.77;;;2.20;97.60;;;;;;5046012;28;20216;-62
2022/12/12 03:50:20;;;;;;;14.33;9.27;;;2.20;97.50;;;;;;5043714;28;20578;-62
2022/12/12 03:53:31;;;;;;;12.10;9.20;;;2.20;97.50;;;;;;5058084;28;20514;-62
2022/12/12 03:56:13;;;;;;;11.50;8.43;;;2.20;97.50;;;;;;4998266;28;20554;-62
2022/12/12 03:58:49;;;;;;;10.57;8.60;;;2.20;97.60;;;;;;4987793;28;20201;-62
2022/12/12 04:01:19;;;;;;;14.93;9.10;;;2.20;97.50;;;;;;5028512;28;20231;-62
2022/12/12 04:03:55;;;;;;;10.47;8.47;;;2.20;97.50;;;;;;5063853;28;20551;-62
2022/12/12 04:06:28;;;;;;;10.83;8.40;;;2.20;97.60;;;;;;5058173;28;20196;-62
2022/12/12 04:15:20;;;;;;;11.57;8.93;;;2.20;97.50;;;;;;5065970;28;20306;-62
2022/12/12 04:17:59;;;;;;;11.33;9.13;;;2.20;97.50;;;;;;5028933;28;20269;-62
2022/12/12 04:23:48;;;;;;;10.93;8.87;;;2.20;97.60;;;;;;5062291;28;20198;-62
2022/12/12 04:26:40;;;;;;;9.97;8.63;;;2.30;97.70;;;;;;5066552;28;20200;-62
2022/12/12 04:29:40;;;;;;;11.73;9.03;;;2.30;97.70;;;;;;5061111;28;20192;-62
2022/12/12 04:32:22;;;;;;;12.87;9.00;;;2.30;97.70;;;;;;5061891;28;20190;-62
2022/12/12 04:34:57;;;;;;;11.17;8.63;;;2.30;97.60;;;;;;5052936;28;20208;-62
2022/12/12 04:37:53;;;;;;;9.23;7.63;;;2.30;97.50;;;;;;5052882;28;20210;-62
2022/12/12 04:40:50;;;;;;;9.50;7.77;;;2.30;97.40;;;;;;5061118;28;20557;-62
2022/12/12 04:43:22;;;;;;;10.43;7.67;;;2.20;97.40;;;;;;5066885;28;20657;-62
2022/12/12 04:45:53;;;;;;;11.33;8.10;;;2.20;97.40;;;;;;5068316;28;20698;-62
2022/12/12 04:48:44;;;;;;;10.73;8.03;;;2.10;97.40;;;;;;5064445;28;20204;-62
2022/12/12 04:51:17;;;;;;;9.23;7.17;;;2.10;97.50;;;;;;5065076;28;20216;-62
2022/12/12 04:53:48;;;;;;;10.70;8.67;;;2.10;97.50;;;;;;5059128;28;20208;-62
2022/12/12 04:56:20;;;;;;;10.27;7.60;;;2.10;97.50;;;;;;5065572;28;20221;-62
2022/12/12 04:58:47;;;;;;;11.20;8.57;;;2.00;97.40;;;;;;5061116;28;20204;-63
2022/12/12 05:01:37;;;;;;;10.93;8.43;;;2.00;97.20;;;;;;5064453;28;20237;-62
2022/12/12 05:04:11;;;;;;;11.17;8.17;;;1.90;97.20;;;;;;5063444;28;20270;-63
2022/12/12 05:06:46;;;;;;;10.27;8.23;;;1.90;97.30;;;;;;5067632;28;20210;-62
2022/12/12 05:09:16;;;;;;;10.90;7.83;;;1.90;97.50;;;;;;5065192;28;20206;-62
2022/12/12 05:11:43;;;;;;;11.87;9.03;;;1.90;97.50;;;;;;5061652;28;20549;-62
2022/12/12 05:14:14;;;;;;;9.93;7.97;;;1.90;97.40;;;;;;5071041;28;20234;-62
2022/12/12 05:16:46;;;;;;;10.83;9.33;;;1.90;97.30;;;;;;5058551;28;20210;-62
2022/12/12 05:19:13;;;;;;;13.63;9.23;;;1.90;97.40;;;;;;5060911;28;20327;-62
2022/12/12 05:21:40;;;;;;;11.27;7.97;;;1.90;97.50;;;;;;5062688;28;20232;-62
2022/12/12 05:24:07;;;;;;;10.17;7.53;;;2.00;97.50;;;;;;5062169;28;20642;-62
2022/12/12 05:26:35;;;;;;;13.13;8.30;;;2.00;97.50;;;;;;5063626;28;20195;-62
2022/12/12 05:29:03;;;;;;;10.80;8.30;;;2.00;97.50;;;;;;5065414;28;20213;-62
2022/12/12 05:31:34;;;;;;;12.83;8.83;;;2.10;97.50;;;;;;5062441;28;20553;-62
2022/12/12 05:34:01;;;;;;;12.40;8.40;;;2.10;97.50;;;;;;5062112;28;20213;-62
2022/12/12 05:36:28;;;;;;;13.60;8.87;;;2.10;97.40;;;;;;5062655;28;20219;-62
2022/12/12 05:38:55;;;;;;;12.37;9.47;;;2.10;97.20;;;;;;5060287;28;20364;-62
2022/12/12 05:41:22;;;;;;;14.73;9.33;;;2.10;97.10;;;;;;5063406;28;20196;-63
2022/12/12 05:43:49;;;;;;;13.30;9.83;;;2.10;97.20;;;;;;5065031;28;20225;-62
2022/12/12 05:46:16;;;;;;;13.50;9.97;;;2.00;97.30;;;;;;5061994;28;20199;-62
2022/12/12 05:48:49;;;;;;;10.33;9.17;;;2.00;97.30;;;;;;5054064;28;20219;-62
2022/12/12 05:51:20;;;;;;;14.27;10.07;;;2.10;97.40;;;;;;5061758;28;20236;-63
2022/12/12 05:53:47;;;;;;;15.70;10.73;;;2.10;97.40;;;;;;5064756;28;20202;-62
2022/12/12 05:56:14;;;;;;;22.63;12.97;;;2.10;97.40;;;;;;5065695;28;20661;-63
2022/12/12 05:58:42;;;;;;;20.40;12.03;;;2.10;97.50;;;;;;5059593;28;20199;-63
2022/12/12 06:01:09;;;;;;;21.47;13.20;;;2.10;97.50;;;;;;5061584;28;20222;-63
2022/12/12 06:03:36;;;;;;;39.47;13.27;;;2.20;97.50;;;;;;5064274;28;20552;-62
2022/12/12 06:06:04;;;;;;;93.53;15.27;;;2.20;97.50;;;;;;5062330;28;20200;-62
2022/12/12 06:08:31;;;;;;;77.23;15.20;;;2.20;97.50;;;;;;5061511;28;20287;-63
2022/12/12 06:10:58;;;;;;;69.87;15.60;;;2.20;97.40;;;;;;5063057;28;20195;-63
2022/12/12 06:13:25;;;;;;;75.53;16.03;;;2.20;97.40;;;;;;5058164;28;20657;-63
2022/12/12 06:15:52;;;;;;;96.50;16.83;;;2.20;97.30;;;;;;5063152;28;20201;-62
2022/12/12 06:18:19;;;;;;;89.17;16.73;;;2.20;97.40;;;;;;5064633;28;20207;-63
2022/12/12 06:20:46;;;;;;;196.33;19.80;;;2.10;97.50;;;;;;5048996;28;20207;-63
2022/12/12 06:23:13;;;;;;;74.40;16.30;;;2.10;97.60;;;;;;5065309;28;20195;-63
2022/12/12 06:25:40;;;;;;;121.33;20.10;;;2.10;97.80;;;;;;5065036;28;20198;-63
2022/12/12 06:28:08;;;;;;;167.90;19.27;;;2.10;97.90;;;;;;5059867;28;20516;-63
2022/12/12 06:30:35;;;;;;;140.30;19.63;;;2.10;98.00;;;;;;5048718;28;20204;-63
2022/12/12 06:33:02;;;;;;;118.67;18.70;;;2.10;98.10;;;;;;5060041;28;20530;-63
2022/12/12 06:35:29;;;;;;;132.07;19.00;;;2.20;98.20;;;;;;5060052;28;20201;-63
2022/12/12 06:37:56;;;;;;;166.27;16.80;;;2.20;98.30;;;;;;5046950;28;20230;-63
2022/12/12 06:40:23;;;;;;;120.57;16.30;;;2.20;98.30;;;;;;5062363;28;20203;-63
2022/12/12 06:42:50;;;;;;;216.43;21.73;;;2.20;98.30;;;;;;5061001;28;20201;-63
2022/12/12 06:45:17;;;;;;;66.80;15.80;;;2.20;98.40;;;;;;5071383;28;20206;-63
2022/12/12 06:47:44;;;;;;;135.23;16.57;;;2.20;98.40;;;;;;5063659;28;20211;-63
2022/12/12 06:50:11;;;;;;;104.70;16.83;;;2.20;98.50;;;;;;5061098;28;20200;-63
2022/12/12 06:52:38;;;;;;;78.60;15.17;;;2.20;98.50;;;;;;5061869;28;20203;-63
2022/12/12 06:55:06;;;;;;;111.50;14.93;;;2.20;98.60;;;;;;5059064;28;20214;-63
2022/12/12 06:57:33;;;;;;;212.90;18.87;;;2.20;98.60;;;;;;5063045;28;20219;-63
2022/12/12 07:00:01;;;;;;;110.00;16.30;;;2.20;98.70;;;;;;5061475;28;20233;-63
2022/12/12 07:02:28;;;;;;;120.87;14.70;;;2.20;98.70;;;;;;5062847;28;20206;-63
2022/12/12 07:04:56;;;;;;;158.50;16.93;;;2.20;98.80;;;;;;5062932;28;20222;-63
2022/12/12 07:07:24;;;;;;;69.30;15.63;;;2.20;98.80;;;;;;5064044;28;20218;-63
2022/12/12 07:09:51;;;;;;;57.20;14.80;;;2.20;98.90;;;;;;5056353;28;20214;-63
2022/12/12 07:12:18;;;;;;;50.73;13.33;;;2.20;99.00;;;;;;5063933;28;20205;-63
2022/12/12 07:14:45;;;;;;;95.63;14.17;;;2.20;99.00;;;;;;5046716;28;20206;-63
2022/12/12 07:17:12;;;;;;;56.60;14.30;;;2.20;99.00;;;;;;5061255;28;20302;-63
2022/12/12 07:19:39;;;;;;;64.77;12.70;;;2.30;99.00;;;;;;5055972;28;20532;-63
2022/12/12 07:22:06;;;;;;;31.20;11.77;;;2.30;98.90;;;;;;5061080;28;20202;-63
2022/12/12 07:24:37;;;;;;;55.67;11.87;;;2.30;98.90;;;;;;5055729;28;20198;-63
2022/12/12 07:27:05;;;;;;;43.00;12.03;;;2.30;98.80;;;;;;5062664;28;20631;-63
2022/12/12 07:29:32;;;;;;;33.17;11.50;;;2.30;98.80;;;;;;5061754;28;20195;-63
2022/12/12 07:31:59;;;;;;;56.50;12.93;;;2.30;98.80;;;;;;5060915;28;20528;-63
2022/12/12 07:34:30;;;;;;;48.57;12.50;;;2.40;98.80;;;;;;5067021;28;20306;-63
2022/12/12 07:36:57;;;;;;;46.43;13.03;;;2.40;98.90;;;;;;5054476;28;20207;-63
2022/12/12 07:39:31;;;;;;;25.83;12.17;;;2.50;98.90;;;;;;5059238;28;20228;-63
2022/12/12 07:41:59;;;;;;;34.87;11.80;;;2.50;98.90;;;;;;5061045;28;20200;-63
2022/12/12 07:44:26;;;;;;;40.93;12.17;;;2.60;98.90;;;;;;5060221;28;20196;-63
2022/12/12 07:46:55;;;;;;;32.83;12.90;;;2.70;98.80;;;;;;5051365;28;20203;-63
2022/12/12 07:49:22;;;;;;;28.60;12.67;;;2.70;98.70;;;;;;5066524;28;20244;-63
2022/12/12 07:51:49;;;;;;;33.63;12.13;;;2.80;98.70;;;;;;5064913;28;20513;-63
2022/12/12 07:54:16;;;;;;;37.17;13.67;;;2.80;98.60;;;;;;5063913;28;20210;-63
2022/12/12 07:56:43;;;;;;;48.43;14.70;;;2.80;98.50;;;;;;5069404;28;20235;-63
2022/12/12 07:59:10;;;;;;;29.40;13.20;;;2.90;98.50;;;;;;5046660;28;20636;-63
2022/12/12 08:01:38;;;;;;;51.77;14.20;;;2.90;98.40;;;;;;5065019;28;20201;-63
2022/12/12 08:04:05;;;;;;;51.83;13.43;;;2.90;98.40;;;;;;5068262;28;20223;-62
2022/12/12 08:06:32;;;;;;;35.13;13.13;;;3.00;98.40;;;;;;5061905;28;20250;-63
2022/12/12 08:08:59;;;;;;;21.00;11.60;;;3.00;98.30;;;;;;5061911;28;20197;-63
2022/12/12 08:11:26;;;;;;;43.07;14.87;;;3.00;98.30;;;;;;5060995;28;20204;-63
2022/12/12 08:13:54;;;;;;;34.47;14.70;;;3.10;98.30;;;;;;5061621;28;20192;-63
2022/12/12 08:16:24;;;;;;;35.77;13.70;;;3.10;98.10;;;;;;5061410;28;20239;-63
2022/12/12 08:18:55;;;;;;;53.33;14.73;;;3.10;98.00;;;;;;5066023;28;20647;-63
2022/12/12 08:21:23;;;;;;;33.37;16.03;;;3.10;97.90;;;;;;5065013;28;20231;-63
2022/12/12 08:23:58;;;;;;;35.50;14.07;;;3.10;97.90;;;;;;5055625;28;20665;-63
2022/12/12 08:26:26;;;;;;;29.53;14.10;;;3.20;98.00;;;;;;5063510;28;20283;-63
2022/12/12 08:28:54;;;;;;;28.30;14.63;;;3.20;98.00;;;;;;5062347;28;20214;-63
2022/12/12 08:31:22;;;;;;;34.23;14.60;;;3.30;98.00;;;;;;5060465;28;20200;-63
2022/12/12 08:33:49;;;;;;;34.30;14.67;;;3.30;98.00;;;;;;5063456;28;20213;-63
2022/12/12 08:36:22;;;;;;;42.17;13.97;;;3.30;98.00;;;;;;5046284;28;20670;-63
2022/12/12 08:38:51;;;;;;;43.20;16.87;;;3.40;98.00;;;;;;5049975;28;20303;-63
2022/12/12 08:41:18;;;;;;;54.40;16.93;;;3.40;98.00;;;;;;5063919;28;20301;-63
2022/12/12 08:43:45;;;;;;;42.53;14.73;;;3.40;97.90;;;;;;5066191;28;20227;-63
2022/12/12 08:46:14;;;;;;;27.03;15.23;;;3.50;97.90;;;;;;5063256;28;20202;-63
2022/12/12 08:48:45;;;;;;;42.27;15.80;;;3.50;97.80;;;;;;5065783;28;20209;-63
2022/12/12 08:51:17;;;;;;;37.77;13.20;;;3.50;97.80;;;;;;5062463;28;20201;-63
2022/12/12 08:53:49;;;;;;;36.23;12.77;;;3.60;97.80;;;;;;5064715;28;20213;-63
2022/12/12 08:56:16;;;;;;;34.93;12.40;;;3.60;97.80;;;;;;5066300;28;20397;-63
2022/12/12 08:58:44;;;;;;;54.53;13.80;;;3.60;97.70;;;;;;5062470;28;20251;-63
2022/12/12 09:01:17;;;;;;;44.97;12.90;;;3.60;97.60;;;;;;5065557;28;20239;-63
2022/12/12 09:03:45;;;;;;;41.47;14.33;;;3.60;97.50;;;;;;5067381;28;20637;-63
2022/12/12 09:06:13;;;;;;;32.77;12.60;;;3.70;97.60;;;;;;5061863;28;20231;-63
2022/12/12 09:08:40;;;;;;;42.17;13.53;;;3.70;97.70;;;;;;5063563;28;20227;-63
2022/12/12 09:11:08;;;;;;;66.23;14.27;;;3.70;97.70;;;;;;5055309;28;20631;-63
2022/12/12 09:13:36;;;;;;;83.30;14.50;;;3.70;97.60;;;;;;5066973;28;20208;-63
2022/12/12 09:16:04;;;;;;;68.70;14.30;;;3.80;97.70;;;;;;5063178;28;20635;-63
2022/12/12 09:18:32;;;;;;;54.83;12.97;;;3.80;97.70;;;;;;5061077;28;20224;-63
2022/12/12 09:20:59;;;;;;;72.47;15.17;;;3.90;97.70;;;;;;5062006;28;20223;-63
2022/12/12 09:23:27;;;;;;;66.53;13.97;;;3.90;97.70;;;;;;5063330;28;20193;-63
2022/12/12 09:25:55;;;;;;;43.33;15.13;;;3.90;97.60;;;;;;5064962;28;20240;-63
2022/12/12 09:28:24;;;;;;;61.33;15.80;;;4.00;97.60;;;;;;5064167;28;20193;-63
2022/12/12 09:30:51;;;;;;;59.67;15.80;;;4.00;97.60;;;;;;5062517;28;20658;-62
2022/12/12 09:33:18;;;;;;;57.23;16.53;;;4.10;97.60;;;;;;5064892;28;20291;-63
2022/12/12 09:35:45;;;;;;;55.57;17.13;;;4.20;97.50;;;;;;5060642;28;20210;-63
2022/12/12 09:38:13;;;;;;;117.13;17.80;;;4.20;97.40;;;;;;5060760;28;20273;-63
2022/12/12 09:40:44;;;;;;;59.50;16.43;;;4.20;97.30;;;;;;5062116;28;20201;-63
2022/12/12 09:43:18;;;;;;;50.17;15.40;;;4.20;97.20;;;;;;5063255;28;20200;-63
2022/12/12 09:45:46;;;;;;;40.37;14.97;;;4.20;97.00;;;;;;5062530;28;20203;-63
2022/12/12 09:48:35;;;;;;;75.33;15.97;;;4.10;96.60;;;;;;5062525;28;20251;-63
2022/12/12 09:51:02;;;;;;;39.37;16.13;;;4.10;96.40;;;;;;5062061;28;20218;-63
2022/12/12 09:53:29;;;;;;;68.20;17.40;;;4.00;96.50;;;;;;5062494;28;20680;-63
2022/12/12 09:56:20;;;;;;;45.83;16.40;;;4.00;96.60;;;;;;5061107;28;20554;-63
2022/12/12 09:58:56;;;;;;;67.87;17.50;;;4.00;96.70;;;;;;5041045;28;20225;-63
2022/12/12 10:01:32;;;;;;;38.93;15.63;;;4.10;96.90;;;;;;5062283;28;20320;-63
2022/12/12 10:04:10;;;;;;;62.80;16.83;;;4.10;97.00;;;;;;5063957;28;20278;-63
2022/12/12 10:06:51;;;;;;;50.40;14.60;;;4.20;97.00;;;;;;5059171;28;20219;-63
2022/12/12 10:10:11;;;;;;;64.93;14.67;;;4.20;96.90;;;;;;5062477;28;20296;-63
2022/12/12 10:12:39;;;;;;;46.33;12.73;;;4.20;96.80;;;;;;4954466;28;20211;-63
2022/12/12 10:15:11;;;;;;;50.27;14.70;;;4.20;96.70;;;;;;5059403;28;20232;-63
2022/12/12 10:17:46;;;;;;;39.50;14.70;;;4.10;96.60;;;;;;5065032;28;20679;-63
2022/12/12 10:20:16;;;;;;;88.27;15.20;;;4.10;96.90;;;;;;5062815;28;20216;-62
2022/12/12 10:22:49;;;;;;;38.67;14.43;;;4.20;96.80;;;;;;5062758;28;20205;-63
2022/12/12 10:25:24;;;;;;;33.87;13.37;;;4.20;96.80;;;;;;5055834;28;20316;-62
2022/12/12 10:28:12;;;;;;;60.10;14.90;;;4.20;96.80;;;;;;5064056;28;20213;-61
2022/12/12 10:30:54;;;;;;;53.00;13.87;;;4.30;96.90;;;;;;5059942;28;20212;-62
2022/12/12 10:33:31;;;;;;;50.53;14.53;;;4.30;96.80;;;;;;5063271;28;20227;-63
2022/12/12 10:36:32;;;;;;;32.43;14.27;;;4.40;96.80;;;;;;5062535;28;20207;-64
2022/12/12 10:39:13;;;;;;;52.70;14.57;;;4.40;96.60;;;;;;5049690;28;20232;-62
2022/12/12 10:41:57;;;;;;;40.43;15.57;;;4.30;96.60;;;;;;5063754;28;20231;-61
2022/12/12 10:44:33;;;;;;;57.70;16.63;;;4.40;96.60;;;;;;5064954;28;20204;-62
2022/12/12 10:47:04;;;;;;;71.77;15.30;;;4.40;96.60;;;;;;5059777;28;20314;-62
2022/12/12 10:49:32;;;;;;;37.90;13.70;;;4.40;96.60;;;;;;5064047;28;20207;-63
2022/12/12 10:52:10;;;;;;;40.00;16.07;;;4.40;96.60;;;;;;5063424;28;20210;-63
2022/12/12 10:55:04;;;;;;;33.80;14.73;;;4.40;96.50;;;;;;5060294;28;20209;-65
2022/12/12 10:57:35;;;;;;;28.80;15.80;;;4.50;96.50;;;;;;5063373;28;20217;-62
2022/12/12 11:00:17;;;;;;;51.87;16.77;;;4.50;96.50;;;;;;5061783;28;20323;-63
2022/12/12 11:02:44;;;;;;;66.40;17.90;;;4.50;96.50;;;;;;5062115;28;20197;-62
2022/12/12 11:05:25;;;;;;;43.00;16.40;;;4.50;96.30;;;;;;5065765;28;20200;-63
2022/12/12 11:08:03;;;;;;;47.23;15.80;;;4.50;96.20;;;;;;5057117;28;20522;-63
2022/12/12 11:10:36;;;;;;;42.37;16.93;;;4.40;96.30;;;;;;5061791;28;20549;-63
2022/12/12 11:13:09;;;;;;;34.20;15.17;;;4.40;96.40;;;;;;5061856;28;20212;-63
2022/12/12 11:15:49;;;;;;;54.67;17.27;;;4.50;96.40;;;;;;5061503;28;20201;-62
2022/12/12 11:18:20;;;;;;;32.67;15.53;;;4.50;96.40;;;;;;5056543;28;20221;-62
2022/12/12 11:20:59;;;;;;;33.17;16.40;;;4.50;96.40;;;;;;5059515;28;20224;-62
2022/12/12 11:23:28;;;;;;;31.80;15.93;;;4.50;96.40;;;;;;5064616;28;20232;-63
2022/12/12 11:26:26;;;;;;;42.57;18.23;;;4.50;96.40;;;;;;5072517;28;20251;-64
2022/12/12 11:28:59;;;;;;;36.30;16.17;;;4.60;96.50;;;;;;5052515;28;20252;-63
2022/12/12 11:31:31;;;;;;;39.90;16.73;;;4.60;96.60;;;;;;5067402;28;20205;-63
2022/12/12 11:34:06;;;;;;;34.70;17.57;;;4.60;96.50;;;;;;5070984;28;20204;-62
2022/12/12 11:36:40;;;;;;;32.37;16.80;;;4.60;96.50;;;;;;5060700;28;20210;-62
2022/12/12 11:39:20;;;;;;;34.40;17.53;;;4.70;96.60;;;;;;5062007;28;20240;-63
2022/12/12 11:42:25;;;;;;;33.57;18.17;;;4.70;96.60;;;;;;5067834;28;20211;-64
2022/12/12 11:45:03;;;;;;;35.53;17.20;;;4.80;96.60;;;;;;5049020;28;20221;-63
2022/12/12 11:47:39;;;;;;;36.73;16.70;;;4.80;96.50;;;;;;5063339;28;20199;-63
2022/12/12 11:50:17;;;;;;;31.73;17.63;;;4.80;96.50;;;;;;5057451;28;20218;-61
2022/12/12 11:52:46;;;;;;;34.40;18.83;;;4.80;96.40;;;;;;5044275;28;20209;-63
2022/12/12 11:55:15;;;;;;;39.40;17.60;;;4.80;96.40;;;;;;5063721;28;20193;-63
2022/12/12 11:58:02;;;;;;;31.07;17.67;;;4.90;96.50;;;;;;5065924;28;20217;-64
2022/12/12 12:00:57;;;;;;;31.53;18.27;;;4.90;96.50;;;;;;5037706;28;20237;-65
2022/12/12 12:03:28;;;;;;;38.13;19.80;;;5.00;96.80;;;;;;5057440;28;20220;-63
2022/12/12 12:06:03;;;;;;;33.93;19.13;;;5.00;96.40;;;;;;5065595;28;20646;-62
2022/12/12 12:09:00;;;;;;;34.20;18.77;;;5.00;96.40;;;;;;5062761;28;20213;-63
2022/12/12 12:11:42;;;;;;;32.40;18.10;;;5.00;96.50;;;;;;5046318;28;20299;-62
2022/12/12 12:14:35;;;;;;;34.87;19.17;;;5.10;96.50;;;;;;5068209;28;20224;-62
2022/12/12 12:17:10;;;;;;;38.87;20.63;;;5.10;96.40;;;;;;5055730;28;20227;-63
2022/12/12 12:19:55;;;;;;;35.80;19.47;;;5.10;96.30;;;;;;5061885;28;20229;-63
2022/12/12 12:22:25;;;;;;;41.77;18.90;;;5.00;96.20;;;;;;5055985;28;20209;-63
2022/12/12 12:25:01;;;;;;;33.27;19.53;;;5.00;96.10;;;;;;5065335;28;20219;-64
2022/12/12 12:27:52;;;;;;;37.17;19.40;;;5.00;96.10;;;;;;5063795;28;20523;-63
2022/12/12 12:30:21;;;;;;;34.87;20.03;;;4.90;96.10;;;;;;5066417;28;20212;-63
2022/12/12 12:33:17;;;;;;;41.70;20.53;;;4.90;96.50;;;;;;5060927;28;20285;-63
2022/12/12 12:36:15;;;;;;;38.73;20.73;;;5.00;96.40;;;;;;5064839;28;20204;-62
2022/12/12 12:39:09;;;;;;;35.27;19.30;;;5.00;96.40;;;;;;5032764;28;20228;-63
2022/12/12 12:42:07;;;;;;;35.90;20.17;;;5.00;96.40;;;;;;5066631;28;20284;-63
2022/12/12 12:45:02;;;;;;;40.90;20.63;;;5.00;96.40;;;;;;5064613;28;20213;-62
2022/12/12 12:47:37;;;;;;;39.10;19.93;;;5.10;96.40;;;;;;5057432;28;20202;-62
2022/12/12 12:50:16;;;;;;;32.90;20.23;;;5.00;96.20;;;;;;5060829;28;20250;-62
2022/12/12 12:53:01;;;;;;;37.87;20.00;;;5.00;96.20;;;;;;5063158;28;20281;-62
2022/12/12 12:55:40;;;;;;;40.40;20.20;;;5.00;96.30;;;;;;5065786;28;20205;-62
2022/12/12 12:58:18;;;;;;;38.50;20.40;;;5.00;96.30;;;;;;5063619;28;20216;-62
2022/12/12 13:01:03;;;;;;;39.70;20.97;;;5.00;96.30;;;;;;5061651;28;20248;-62
2022/12/12 13:03:39;;;;;;;37.53;20.00;;;5.00;96.40;;;;;;5064708;28;20214;-62
2022/12/12 13:06:20;;;;;;;41.37;21.60;;;5.00;96.50;;;;;;5056850;28;20207;-63
2022/12/12 13:09:17;;;;;;;39.20;19.47;;;5.00;96.50;;;;;;5064968;28;20240;-63
2022/12/12 13:11:47;;;;;;;37.97;20.13;;;5.00;96.40;;;;;;4998420;28;20226;-63
2022/12/12 13:14:39;;;;;;;33.20;19.53;;;5.00;96.30;;;;;;5068224;28;20194;-63
2022/12/12 13:17:12;;;;;;;33.63;18.17;;;5.00;96.30;;;;;;5062393;28;20194;-63
2022/12/12 13:19:43;;;;;;;38.83;20.47;;;5.00;96.30;;;;;;5063462;28;20274;-62
2022/12/12 13:22:24;;;;;;;41.93;21.87;;;5.00;96.60;;;;;;5066318;28;20229;-62
2022/12/12 13:25:04;;;;;;;38.50;20.80;;;5.00;96.40;;;;;;5067317;28;20217;-63
2022/12/12 13:27:45;;;;;;;38.57;20.80;;;5.00;96.40;;;;;;5064599;28;20194;-63